Time;durP1;ratioP1;P1;durP2;ratioP2;P2;SDS_P1;SDS_P2;PMS_P1;PMS_P2;Temp;Humidity;BMP_temperature;BMP_pressure;BME280_temperature;BME280_humidity;BME280_pressure;Samples;Min_cycle;Max_cycle;Signal;HPM_P1;HPM_P2
2023/03/09 00:00:51;;;;;;;19.00;10.80;;;3.70;99.90;;;;;;5088323;28;20054;-65
2023/03/09 00:03:19;;;;;;;14.18;9.85;;;3.70;99.90;;;;;;5070520;28;20098;-65
2023/03/09 00:05:57;;;;;;;15.90;9.68;;;3.70;99.90;;;;;;5088423;28;20052;-65
2023/03/09 00:08:24;;;;;;;16.75;10.23;;;3.60;99.90;;;;;;5050828;28;20063;-65
2023/03/09 00:10:52;;;;;;;14.60;9.40;;;3.70;99.90;;;;;;5069355;28;20090;-65
2023/03/09 00:13:19;;;;;;;18.33;10.07;;;3.70;99.90;;;;;;5088718;28;20047;-64
2023/03/09 00:15:50;;;;;;;17.02;9.40;;;3.70;99.90;;;;;;5091737;28;20071;-64
2023/03/09 00:18:17;;;;;;;14.98;9.68;;;3.70;99.90;;;;;;5091794;28;20052;-64
2023/03/09 00:20:44;;;;;;;17.10;11.35;;;3.70;99.90;;;;;;5056671;28;20527;-65
2023/03/09 00:23:11;;;;;;;18.63;12.20;;;3.80;99.90;;;;;;5091653;28;20051;-64
2023/03/09 00:25:38;;;;;;;17.48;10.68;;;3.70;99.90;;;;;;5075894;28;20079;-65
2023/03/09 00:28:05;;;;;;;18.67;11.77;;;3.70;99.90;;;;;;5095021;28;20048;-64
2023/03/09 00:30:32;;;;;;;15.23;10.00;;;3.70;99.90;;;;;;5094838;28;20036;-65
2023/03/09 00:32:58;;;;;;;20.90;11.70;;;3.70;99.90;;;;;;5076459;28;20135;-64
2023/03/09 00:35:25;;;;;;;16.85;10.45;;;3.70;99.90;;;;;;5094409;28;20071;-65
2023/03/09 00:37:52;;;;;;;18.10;10.98;;;3.70;99.90;;;;;;5094278;28;20399;-65
2023/03/09 00:40:19;;;;;;;15.18;10.05;;;3.70;99.90;;;;;;5092943;28;20047;-65
2023/03/09 00:42:46;;;;;;;16.63;10.48;;;3.60;99.90;;;;;;5093277;28;20048;-63
2023/03/09 00:45:12;;;;;;;14.70;10.15;;;3.70;99.90;;;;;;5056129;28;20052;-65
2023/03/09 00:47:39;;;;;;;17.33;10.30;;;3.60;99.90;;;;;;5092072;28;20043;-64
2023/03/09 00:50:07;;;;;;;18.15;10.85;;;3.60;99.90;;;;;;5094020;28;20047;-64
2023/03/09 00:52:34;;;;;;;14.85;9.60;;;3.70;99.90;;;;;;5090976;28;20475;-64
2023/03/09 00:55:01;;;;;;;17.38;10.77;;;3.70;99.90;;;;;;5089304;28;20054;-64
2023/03/09 00:57:27;;;;;;;16.60;10.60;;;3.70;99.90;;;;;;5071724;28;20042;-64
2023/03/09 00:59:54;;;;;;;15.32;9.95;;;3.70;99.90;;;;;;5090168;28;20040;-64
2023/03/09 01:02:21;;;;;;;17.83;11.65;;;3.70;99.90;;;;;;5089528;28;20104;-64
2023/03/09 01:04:48;;;;;;;17.85;10.85;;;3.70;99.90;;;;;;5071086;28;20143;-65
2023/03/09 01:07:15;;;;;;;19.55;10.93;;;3.70;99.90;;;;;;5091127;28;20054;-63
2023/03/09 01:09:42;;;;;;;16.27;10.45;;;3.70;99.90;;;;;;5091221;28;20319;-64
2023/03/09 01:12:09;;;;;;;20.33;11.68;;;3.60;99.90;;;;;;5072727;28;20081;-64
2023/03/09 01:14:36;;;;;;;18.38;11.52;;;3.60;99.90;;;;;;5090777;28;20058;-64
2023/03/09 01:17:03;;;;;;;19.48;11.25;;;3.70;99.90;;;;;;5072366;28;20044;-64
2023/03/09 01:19:30;;;;;;;17.98;11.65;;;3.70;99.90;;;;;;5074167;28;20050;-64
2023/03/09 01:21:59;;;;;;;19.17;12.52;;;3.60;99.90;;;;;;5091039;28;20055;-63
2023/03/09 01:24:26;;;;;;;20.48;12.18;;;3.70;99.90;;;;;;5090098;28;20054;-65
2023/03/09 01:26:53;;;;;;;19.95;12.52;;;3.70;99.90;;;;;;5090593;28;20044;-64
2023/03/09 01:29:20;;;;;;;22.55;11.80;;;3.70;99.90;;;;;;5090384;28;20043;-65
2023/03/09 01:31:46;;;;;;;21.65;12.48;;;3.60;99.90;;;;;;5070552;28;20152;-65
2023/03/09 01:34:13;;;;;;;19.38;11.88;;;3.70;99.90;;;;;;5087359;28;20418;-64
2023/03/09 01:36:40;;;;;;;19.40;12.23;;;3.60;99.90;;;;;;5090766;28;20470;-64
2023/03/09 01:39:08;;;;;;;20.75;12.95;;;3.70;99.90;;;;;;5090048;28;20127;-64
2023/03/09 01:41:34;;;;;;;19.75;11.85;;;3.70;99.90;;;;;;5072559;28;20054;-65
2023/03/09 01:44:01;;;;;;;23.40;12.85;;;3.70;99.90;;;;;;5071867;28;20058;-64
2023/03/09 01:46:33;;;;;;;25.58;13.43;;;3.70;99.90;;;;;;5090338;28;20052;-65
2023/03/09 01:49:05;;;;;;;20.58;12.93;;;3.70;99.90;;;;;;5089770;28;20179;-64
2023/03/09 01:51:48;;;;;;;22.73;13.50;;;3.70;99.90;;;;;;5090597;28;20051;-63
2023/03/09 01:54:26;;;;;;;22.27;12.73;;;3.70;99.90;;;;;;5071662;28;20079;-64
2023/03/09 01:56:55;;;;;;;20.75;13.10;;;3.70;99.90;;;;;;5073248;28;20052;-64
2023/03/09 01:59:25;;;;;;;22.35;14.20;;;3.70;99.90;;;;;;5055269;28;20058;-65
2023/03/09 02:01:51;;;;;;;21.40;13.35;;;3.80;99.90;;;;;;5072459;28;20046;-63
2023/03/09 02:04:25;;;;;;;23.10;13.20;;;3.70;99.90;;;;;;5086173;28;20040;-64
2023/03/09 02:06:52;;;;;;;19.10;12.55;;;3.70;99.90;;;;;;5071892;28;20495;-64
2023/03/09 02:09:26;;;;;;;20.15;12.18;;;3.70;99.90;;;;;;5089610;28;20051;-65
2023/03/09 02:11:53;;;;;;;21.35;12.18;;;3.70;99.90;;;;;;5055878;28;20143;-64
2023/03/09 02:14:20;;;;;;;20.20;11.67;;;3.80;99.90;;;;;;4734120;28;9999935;-64
2023/03/09 02:16:46;;;;;;;17.40;11.77;;;3.80;99.90;;;;;;5069469;28;20048;-65
2023/03/09 02:19:25;;;;;;;25.38;13.25;;;3.70;99.90;;;;;;5089635;28;20549;-64
2023/03/09 02:21:52;;;;;;;19.75;12.40;;;3.80;99.90;;;;;;5069403;28;20040;-64
2023/03/09 02:24:31;;;;;;;20.88;12.35;;;3.70;99.90;;;;;;5054085;28;20044;-64
2023/03/09 02:27:00;;;;;;;21.77;12.88;;;3.70;99.90;;;;;;5086630;28;20422;-65
2023/03/09 02:29:27;;;;;;;19.67;11.65;;;3.70;99.90;;;;;;5055179;28;20471;-65
2023/03/09 02:31:54;;;;;;;21.00;13.38;;;3.70;99.90;;;;;;5070720;28;20128;-65
2023/03/09 02:34:21;;;;;;;25.38;14.32;;;3.80;99.90;;;;;;5088872;28;20400;-64
2023/03/09 02:36:47;;;;;;;20.02;12.98;;;3.70;99.90;;;;;;5069604;28;20044;-64
2023/03/09 02:39:19;;;;;;;23.15;13.88;;;3.70;99.90;;;;;;5091721;28;20131;-64
2023/03/09 02:41:45;;;;;;;26.75;13.55;;;3.80;99.90;;;;;;5071343;28;20357;-64
2023/03/09 02:44:13;;;;;;;22.17;13.23;;;3.80;99.90;;;;;;5089215;28;20058;-64
2023/03/09 02:46:40;;;;;;;23.08;13.65;;;3.80;99.90;;;;;;5054685;28;20095;-64
2023/03/09 02:49:07;;;;;;;23.92;14.13;;;3.80;99.90;;;;;;5089168;28;20048;-64
2023/03/09 02:51:33;;;;;;;24.40;14.55;;;3.80;99.90;;;;;;5089221;28;20040;-64
2023/03/09 02:54:00;;;;;;;24.80;13.90;;;3.80;99.90;;;;;;5071219;28;20127;-64
2023/03/09 02:56:27;;;;;;;25.10;13.75;;;3.80;99.90;;;;;;5091303;28;20055;-64
2023/03/09 02:58:53;;;;;;;28.17;15.43;;;3.90;99.90;;;;;;5089173;28;20040;-64
2023/03/09 03:01:20;;;;;;;25.48;14.98;;;3.80;99.90;;;;;;5088940;28;20497;-64
2023/03/09 03:03:47;;;;;;;25.27;15.20;;;3.80;99.90;;;;;;5088807;28;20044;-64
2023/03/09 03:06:14;;;;;;;28.67;15.32;;;3.90;99.90;;;;;;5088825;28;20052;-64
2023/03/09 03:08:40;;;;;;;25.90;14.82;;;3.90;99.90;;;;;;5088741;28;20139;-66
2023/03/09 03:11:07;;;;;;;27.17;14.52;;;3.90;99.90;;;;;;5090155;28;20048;-64
2023/03/09 03:13:34;;;;;;;24.85;15.60;;;3.90;99.90;;;;;;5089969;28;20040;-64
2023/03/09 03:16:01;;;;;;;28.23;15.18;;;3.90;99.90;;;;;;5089957;28;20066;-66
2023/03/09 03:18:27;;;;;;;27.88;16.25;;;3.90;99.90;;;;;;5089855;28;20048;-64
2023/03/09 03:20:54;;;;;;;30.02;15.93;;;3.90;99.90;;;;;;5092920;28;20098;-65
2023/03/09 03:23:21;;;;;;;27.63;16.45;;;3.90;99.90;;;;;;5090971;28;20059;-64
2023/03/09 03:25:48;;;;;;;25.35;15.55;;;3.90;99.90;;;;;;5095046;28;20044;-64
2023/03/09 03:28:15;;;;;;;28.83;15.25;;;3.90;99.90;;;;;;5092784;28;20056;-63
2023/03/09 03:30:41;;;;;;;26.30;15.98;;;3.90;99.90;;;;;;5093051;28;20059;-64
2023/03/09 03:33:08;;;;;;;27.55;15.88;;;3.90;99.90;;;;;;5074244;28;20071;-64
2023/03/09 03:35:35;;;;;;;25.42;15.75;;;3.90;99.90;;;;;;5090453;28;20059;-65
2023/03/09 03:38:02;;;;;;;27.60;15.10;;;3.90;99.90;;;;;;5092218;28;20093;-65
2023/03/09 03:40:28;;;;;;;22.15;14.82;;;3.90;99.90;;;;;;5092721;28;20043;-64
2023/03/09 03:42:55;;;;;;;30.90;16.23;;;3.90;99.90;;;;;;5092011;28;20047;-64
2023/03/09 03:45:22;;;;;;;26.55;14.80;;;4.00;99.90;;;;;;5092253;28;20460;-64
2023/03/09 03:47:48;;;;;;;30.75;16.80;;;4.00;99.90;;;;;;5074022;28;20051;-65
2023/03/09 03:50:15;;;;;;;29.52;15.43;;;4.00;99.90;;;;;;5092645;28;20044;-66
2023/03/09 03:52:42;;;;;;;24.92;15.38;;;4.00;99.90;;;;;;5092164;28;20056;-65
2023/03/09 03:55:09;;;;;;;28.27;15.32;;;3.90;99.90;;;;;;5091967;28;20044;-64
2023/03/09 03:57:35;;;;;;;27.92;15.48;;;4.00;99.90;;;;;;5078144;28;20127;-64
2023/03/09 04:00:09;;;;;;;27.50;15.10;;;4.00;99.90;;;;;;5092206;28;20127;-65
2023/03/09 04:02:36;;;;;;;27.27;15.10;;;4.00;99.90;;;;;;5091366;28;20097;-65
2023/03/09 04:05:03;;;;;;;28.27;16.17;;;4.00;99.90;;;;;;5084907;28;20048;-64
2023/03/09 04:07:30;;;;;;;25.23;15.57;;;4.00;99.90;;;;;;5082311;28;20414;-65
2023/03/09 04:09:57;;;;;;;28.35;17.00;;;4.00;99.90;;;;;;5092011;28;20058;-64
2023/03/09 04:12:24;;;;;;;36.10;16.50;;;4.00;99.90;;;;;;5092244;28;20422;-64
2023/03/09 04:14:50;;;;;;;27.65;15.02;;;4.00;99.90;;;;;;5091538;28;20048;-64
2023/03/09 04:17:17;;;;;;;26.92;16.75;;;4.10;99.90;;;;;;5071864;28;20048;-64
2023/03/09 04:19:44;;;;;;;26.20;16.90;;;4.10;99.90;;;;;;5089529;28;20054;-64
2023/03/09 04:22:10;;;;;;;27.40;15.52;;;4.10;99.90;;;;;;5091959;28;20128;-64
2023/03/09 04:24:37;;;;;;;27.13;15.75;;;4.10;99.90;;;;;;5073431;28;20050;-65
2023/03/09 04:27:04;;;;;;;29.17;15.65;;;4.10;99.90;;;;;;5091924;28;20052;-64
2023/03/09 04:29:31;;;;;;;25.40;16.10;;;4.00;99.90;;;;;;5090680;28;20123;-63
2023/03/09 04:31:57;;;;;;;28.08;16.30;;;4.00;99.90;;;;;;5091409;28;20512;-64
2023/03/09 04:34:24;;;;;;;28.90;17.40;;;4.00;99.90;;;;;;5090961;28;20384;-64
2023/03/09 04:36:51;;;;;;;29.63;17.40;;;4.00;99.90;;;;;;5091664;28;20055;-65
2023/03/09 04:39:17;;;;;;;32.10;16.98;;;4.00;99.90;;;;;;5090833;28;20036;-64
2023/03/09 04:41:44;;;;;;;27.48;16.92;;;4.10;99.90;;;;;;5091442;28;20442;-64
2023/03/09 04:44:11;;;;;;;33.15;17.90;;;4.10;99.90;;;;;;5090979;28;20135;-64
2023/03/09 04:46:37;;;;;;;27.88;16.02;;;4.10;99.90;;;;;;5091828;28;20036;-64
2023/03/09 04:49:04;;;;;;;27.85;18.15;;;4.10;99.90;;;;;;5091301;28;20486;-63
2023/03/09 04:51:31;;;;;;;27.17;17.83;;;4.10;99.90;;;;;;5091331;28;20075;-64
2023/03/09 04:53:58;;;;;;;32.50;17.00;;;4.10;99.90;;;;;;5090868;28;20051;-64
2023/03/09 04:56:24;;;;;;;31.55;17.63;;;4.20;99.90;;;;;;5090607;28;20048;-64
2023/03/09 04:58:51;;;;;;;29.95;17.75;;;4.10;99.90;;;;;;5091218;28;20426;-64
2023/03/09 05:01:18;;;;;;;30.80;17.48;;;4.10;99.90;;;;;;5090438;28;20044;-64
2023/03/09 05:03:45;;;;;;;32.58;19.67;;;4.10;99.90;;;;;;5072891;28;20044;-64
2023/03/09 05:06:11;;;;;;;29.52;18.23;;;4.10;99.90;;;;;;5090621;28;20043;-63
2023/03/09 05:08:38;;;;;;;33.72;18.00;;;4.10;99.90;;;;;;5091137;28;20082;-64
2023/03/09 05:11:05;;;;;;;36.15;17.10;;;4.10;99.90;;;;;;5090133;28;20052;-63
2023/03/09 05:13:31;;;;;;;31.00;19.27;;;4.10;99.90;;;;;;5073065;28;20044;-64
2023/03/09 05:15:58;;;;;;;33.17;17.02;;;4.10;99.90;;;;;;5090532;28;20097;-64
2023/03/09 05:18:25;;;;;;;36.20;20.05;;;4.10;99.90;;;;;;5072857;28;20047;-64
2023/03/09 05:20:52;;;;;;;38.63;19.27;;;4.20;99.90;;;;;;5090291;28;20040;-64
2023/03/09 05:23:19;;;;;;;34.25;19.15;;;4.10;99.90;;;;;;5072417;28;20044;-64
2023/03/09 05:25:57;;;;;;;31.83;17.48;;;4.50;99.90;;;;;;5090407;28;20653;-64
2023/03/09 05:28:24;;;;;;;28.48;17.08;;;4.10;99.90;;;;;;5080062;28;20481;-64
2023/03/09 05:30:51;;;;;;;27.48;18.13;;;4.10;99.90;;;;;;5089941;28;20050;-64
2023/03/09 05:33:18;;;;;;;32.38;19.95;;;4.10;99.90;;;;;;5090105;28;20511;-63
2023/03/09 05:35:45;;;;;;;33.22;18.40;;;4.10;99.90;;;;;;5090061;28;20040;-63
2023/03/09 05:38:11;;;;;;;31.38;18.88;;;4.10;99.90;;;;;;5090343;28;20048;-64
2023/03/09 05:40:38;;;;;;;36.65;19.63;;;4.10;99.90;;;;;;5089986;28;20044;-64
2023/03/09 05:43:05;;;;;;;30.55;19.90;;;4.10;99.90;;;;;;5089891;28;20076;-64
2023/03/09 05:45:32;;;;;;;33.85;19.42;;;4.10;99.90;;;;;;5090018;28;20062;-63
2023/03/09 05:47:59;;;;;;;29.15;17.80;;;4.10;99.90;;;;;;5089754;28;20582;-65
2023/03/09 05:50:25;;;;;;;36.65;19.75;;;4.10;99.90;;;;;;5089746;28;20131;-64
2023/03/09 05:52:52;;;;;;;34.03;19.48;;;4.10;99.90;;;;;;5090152;28;20530;-64
2023/03/09 05:55:19;;;;;;;28.52;18.30;;;4.10;99.90;;;;;;5089684;28;20051;-67
2023/03/09 05:57:46;;;;;;;35.05;19.13;;;4.20;99.90;;;;;;5089789;28;20068;-64
2023/03/09 06:00:14;;;;;;;31.40;19.08;;;4.20;99.90;;;;;;5089854;28;20044;-63
2023/03/09 06:02:40;;;;;;;32.20;20.25;;;4.20;99.90;;;;;;5089183;28;20073;-64
2023/03/09 06:05:07;;;;;;;32.50;19.80;;;4.20;99.90;;;;;;5089498;28;20140;-64
2023/03/09 06:07:34;;;;;;;31.58;19.45;;;4.20;99.90;;;;;;5089858;28;20142;-64
2023/03/09 06:10:01;;;;;;;32.83;18.95;;;4.30;99.90;;;;;;5089714;28;20074;-64
2023/03/09 06:12:28;;;;;;;37.55;20.33;;;4.20;99.90;;;;;;5089310;28;20040;-65
2023/03/09 06:14:54;;;;;;;35.83;20.70;;;4.20;99.90;;;;;;5078337;28;20123;-63
2023/03/09 06:17:21;;;;;;;35.35;19.98;;;4.20;99.90;;;;;;5089169;28;20043;-66
2023/03/09 06:19:48;;;;;;;38.17;20.75;;;4.20;99.90;;;;;;5089418;28;20702;-63
2023/03/09 06:22:14;;;;;;;33.33;19.17;;;4.20;99.90;;;;;;5089136;28;20510;-64
2023/03/09 06:24:42;;;;;;;36.83;20.63;;;4.30;99.90;;;;;;5070919;28;20048;-64
2023/03/09 06:27:09;;;;;;;30.35;19.10;;;4.30;99.90;;;;;;5089315;28;20482;-64
2023/03/09 06:29:35;;;;;;;34.92;21.23;;;4.20;99.90;;;;;;5088979;28;20044;-64
2023/03/09 06:32:02;;;;;;;32.15;19.48;;;4.20;99.90;;;;;;5089160;28;20070;-64
2023/03/09 06:34:29;;;;;;;32.33;21.25;;;4.20;99.90;;;;;;5088482;28;20142;-64
2023/03/09 06:36:56;;;;;;;32.60;19.65;;;4.30;99.90;;;;;;5089366;28;20407;-64
2023/03/09 06:39:23;;;;;;;32.03;20.45;;;4.30;99.90;;;;;;5088869;28;20055;-64
2023/03/09 06:41:49;;;;;;;37.13;21.05;;;4.30;99.90;;;;;;5089009;28;20554;-64
2023/03/09 06:44:16;;;;;;;31.67;19.58;;;4.20;99.90;;;;;;5088656;28;20052;-64
2023/03/09 06:46:43;;;;;;;34.83;20.70;;;4.30;99.90;;;;;;5088803;28;20048;-63
2023/03/09 06:49:10;;;;;;;38.83;22.48;;;4.20;99.90;;;;;;5087697;28;20048;-64
2023/03/09 06:51:37;;;;;;;32.60;19.73;;;4.30;99.90;;;;;;5070784;28;20094;-63
2023/03/09 06:54:03;;;;;;;38.55;22.27;;;4.20;99.90;;;;;;5087533;28;20044;-64
2023/03/09 06:56:30;;;;;;;32.92;20.17;;;4.30;99.90;;;;;;5088623;28;20044;-63
2023/03/09 06:58:57;;;;;;;41.75;23.90;;;4.30;99.90;;;;;;5088103;28;20040;-64
2023/03/09 07:01:24;;;;;;;35.38;21.75;;;4.30;99.90;;;;;;5069985;28;20449;-63
2023/03/09 07:03:50;;;;;;;36.90;23.48;;;4.30;99.90;;;;;;5088086;28;20052;-64
2023/03/09 07:06:17;;;;;;;44.40;21.67;;;4.30;99.90;;;;;;5088976;28;20490;-64
2023/03/09 07:08:44;;;;;;;37.13;21.40;;;4.30;99.90;;;;;;5088012;28;20047;-64
2023/03/09 07:11:11;;;;;;;40.38;21.67;;;4.30;99.90;;;;;;5069218;28;20044;-65
2023/03/09 07:13:38;;;;;;;32.35;18.77;;;4.30;99.90;;;;;;5090942;28;20134;-65
2023/03/09 07:16:05;;;;;;;36.55;19.73;;;4.40;99.90;;;;;;5087919;28;20167;-64
2023/03/09 07:18:32;;;;;;;37.10;20.17;;;4.40;99.90;;;;;;5087653;28;20068;-64
2023/03/09 07:21:00;;;;;;;40.22;19.98;;;4.40;99.90;;;;;;5087919;28;20372;-64
2023/03/09 07:23:31;;;;;;;34.55;20.50;;;4.40;99.90;;;;;;5087004;28;20080;-64
2023/03/09 07:25:59;;;;;;;37.38;19.70;;;4.40;99.90;;;;;;5086314;28;20052;-64
2023/03/09 07:28:26;;;;;;;38.97;20.83;;;4.70;99.90;;;;;;5087433;28;20135;-64
2023/03/09 07:30:53;;;;;;;29.55;18.58;;;4.40;99.90;;;;;;5087242;28;20142;-64
2023/03/09 07:33:20;;;;;;;44.30;23.17;;;4.40;99.90;;;;;;5087182;28;20055;-64
2023/03/09 07:35:47;;;;;;;34.42;19.38;;;4.40;99.90;;;;;;5087355;28;20036;-64
2023/03/09 07:38:14;;;;;;;32.47;18.58;;;4.50;99.90;;;;;;5069365;28;20438;-64
2023/03/09 07:40:41;;;;;;;40.00;20.08;;;4.50;99.90;;;;;;5086486;28;20086;-64
2023/03/09 07:43:10;;;;;;;37.50;20.02;;;4.50;99.90;;;;;;5087154;28;20127;-64
2023/03/09 07:45:40;;;;;;;31.58;18.83;;;4.50;99.90;;;;;;5067386;28;20051;-64
2023/03/09 07:48:07;;;;;;;32.42;15.88;;;4.50;99.90;;;;;;5051055;28;20078;-64
2023/03/09 07:50:34;;;;;;;34.10;16.60;;;4.50;99.90;;;;;;5069732;28;20072;-64
2023/03/09 07:53:01;;;;;;;32.90;17.05;;;4.50;99.90;;;;;;5052062;28;20044;-63
2023/03/09 07:55:29;;;;;;;28.50;18.00;;;4.50;99.90;;;;;;5087378;28;20040;-64
2023/03/09 07:57:56;;;;;;;37.03;18.58;;;4.50;99.90;;;;;;5086465;28;20074;-65
2023/03/09 08:00:24;;;;;;;31.58;16.27;;;4.50;99.90;;;;;;5086965;28;20086;-65
2023/03/09 08:02:51;;;;;;;31.65;18.67;;;4.50;99.90;;;;;;5086813;28;20055;-66
2023/03/09 08:05:18;;;;;;;38.25;18.33;;;4.50;99.90;;;;;;5088585;28;20048;-66
2023/03/09 08:07:46;;;;;;;28.63;17.27;;;4.50;99.90;;;;;;5091228;28;20098;-66
2023/03/09 08:10:14;;;;;;;32.75;17.92;;;4.60;99.90;;;;;;5090115;28;20414;-65
2023/03/09 08:12:46;;;;;;;29.73;17.30;;;4.60;99.90;;;;;;5089738;28;20570;-65
2023/03/09 08:15:13;;;;;;;24.70;15.10;;;4.60;99.90;;;;;;5077985;28;20102;-66
2023/03/09 08:17:40;;;;;;;26.55;16.35;;;4.60;99.90;;;;;;5088361;28;20074;-64
2023/03/09 08:20:09;;;;;;;26.63;15.43;;;4.70;99.90;;;;;;5073683;28;20048;-64
2023/03/09 08:22:36;;;;;;;28.60;16.92;;;4.70;99.90;;;;;;5070543;28;20052;-66
2023/03/09 08:25:03;;;;;;;27.70;16.60;;;4.70;99.90;;;;;;5072647;28;20051;-65
2023/03/09 08:27:36;;;;;;;30.63;18.25;;;4.70;99.90;;;;;;5091467;28;20082;-65
2023/03/09 08:30:03;;;;;;;25.92;15.07;;;4.70;99.90;;;;;;5091737;28;20131;-65
2023/03/09 08:32:30;;;;;;;29.25;16.58;;;4.80;99.90;;;;;;5072364;28;20048;-66
2023/03/09 08:34:57;;;;;;;25.77;15.00;;;4.80;99.90;;;;;;5072924;28;20083;-66
2023/03/09 08:37:24;;;;;;;23.67;13.85;;;4.80;99.90;;;;;;5073393;28;20126;-65
2023/03/09 08:39:51;;;;;;;23.38;14.27;;;4.80;99.90;;;;;;5091320;28;20046;-67
2023/03/09 08:42:18;;;;;;;24.58;14.90;;;4.80;99.90;;;;;;5091147;28;20471;-66
2023/03/09 08:44:45;;;;;;;22.17;13.35;;;4.80;99.90;;;;;;5091267;28;20052;-66
2023/03/09 08:47:12;;;;;;;22.65;13.38;;;4.90;99.90;;;;;;5092005;28;20040;-66
2023/03/09 08:49:40;;;;;;;22.15;13.95;;;4.90;99.90;;;;;;5073686;28;20040;-65
2023/03/09 08:52:07;;;;;;;20.85;11.82;;;4.90;99.90;;;;;;5090884;28;20090;-65
2023/03/09 08:54:34;;;;;;;20.38;12.30;;;4.90;99.90;;;;;;5090441;28;20048;-66
2023/03/09 08:57:01;;;;;;;21.33;11.88;;;5.00;99.90;;;;;;5090868;28;20482;-66
2023/03/09 08:59:28;;;;;;;18.25;10.93;;;4.90;99.90;;;;;;5091288;28;20082;-66
2023/03/09 09:01:55;;;;;;;16.85;9.95;;;5.00;99.90;;;;;;5076410;28;20044;-65
2023/03/09 09:04:21;;;;;;;21.00;11.27;;;5.00;99.90;;;;;;5093404;28;20063;-65
2023/03/09 09:06:48;;;;;;;15.77;9.68;;;5.00;99.90;;;;;;5094104;28;20051;-65
2023/03/09 09:09:15;;;;;;;16.85;9.57;;;5.00;99.90;;;;;;5093873;28;20040;-65
2023/03/09 09:11:42;;;;;;;21.02;11.45;;;5.10;99.90;;;;;;5094305;28;20058;-66
2023/03/09 09:14:08;;;;;;;16.13;9.77;;;5.00;99.90;;;;;;5093166;28;20418;-66
2023/03/09 09:16:35;;;;;;;15.30;9.10;;;5.10;99.90;;;;;;5094201;28;20044;-65
2023/03/09 09:19:02;;;;;;;14.60;9.27;;;5.10;99.90;;;;;;5092867;28;20341;-66
2023/03/09 09:21:30;;;;;;;16.95;9.20;;;5.00;99.90;;;;;;5093917;28;20044;-65
2023/03/09 09:23:57;;;;;;;13.35;8.50;;;5.20;99.90;;;;;;5093301;28;20261;-65
2023/03/09 09:26:24;;;;;;;11.93;7.72;;;5.20;99.90;;;;;;5057739;28;20418;-65
2023/03/09 09:28:51;;;;;;;11.40;7.03;;;5.20;99.90;;;;;;5091892;28;20044;-66
2023/03/09 09:31:20;;;;;;;10.43;7.25;;;5.10;99.90;;;;;;5073490;28;20438;-65
2023/03/09 09:33:47;;;;;;;12.73;7.70;;;5.10;99.90;;;;;;5088720;28;20520;-66
2023/03/09 09:36:16;;;;;;;11.77;7.10;;;5.20;99.90;;;;;;5089298;28;20132;-65
2023/03/09 09:38:43;;;;;;;12.45;7.45;;;5.10;99.90;;;;;;5070923;28;20048;-65
2023/03/09 09:41:12;;;;;;;10.82;6.82;;;5.20;99.90;;;;;;5089576;28;20123;-65
2023/03/09 09:43:39;;;;;;;12.68;6.93;;;5.30;99.90;;;;;;5055897;28;20086;-65
2023/03/09 09:46:10;;;;;;;11.38;7.50;;;5.30;99.90;;;;;;5054229;28;20135;-65
2023/03/09 09:48:40;;;;;;;11.00;6.90;;;5.30;99.90;;;;;;5072991;28;20079;-65
2023/03/09 09:51:44;;;;;;;12.85;7.20;;;5.50;99.90;;;;;;5070328;28;20058;-66
2023/03/09 09:54:38;;;;;;;11.25;6.32;;;5.40;99.90;;;;;;5071872;28;20550;-66
2023/03/09 09:57:11;;;;;;;10.20;6.60;;;5.40;99.90;;;;;;5069912;28;20138;-66
2023/03/09 09:59:57;;;;;;;12.70;7.30;;;5.40;99.90;;;;;;5071504;28;20152;-66
2023/03/09 10:02:39;;;;;;;9.75;6.15;;;5.50;99.90;;;;;;5057186;28;20074;-66
2023/03/09 10:05:14;;;;;;;11.25;6.18;;;5.50;99.90;;;;;;5071434;28;20140;-67
2023/03/09 10:07:41;;;;;;;14.63;6.50;;;5.60;99.90;;;;;;5061807;28;20040;-65
2023/03/09 10:10:18;;;;;;;9.50;5.43;;;5.60;99.90;;;;;;5089671;28;20364;-66
2023/03/09 10:12:46;;;;;;;14.60;5.47;;;5.40;99.90;;;;;;5055810;28;20067;-65
2023/03/09 10:15:26;;;;;;;10.57;5.25;;;5.70;99.90;;;;;;5071166;28;20051;-66
2023/03/09 10:18:06;;;;;;;8.20;5.30;;;5.80;99.90;;;;;;5055486;28;20096;-65
2023/03/09 10:20:36;;;;;;;7.47;4.80;;;5.80;99.90;;;;;;5070999;28;20040;-65
2023/03/09 10:23:31;;;;;;;8.32;4.55;;;5.90;99.90;;;;;;5054900;28;20054;-66
2023/03/09 10:26:23;;;;;;;9.52;6.03;;;6.00;99.90;;;;;;5074130;28;20052;-66
2023/03/09 10:28:50;;;;;;;10.57;5.07;;;6.00;99.90;;;;;;5088881;28;20139;-66
2023/03/09 10:31:29;;;;;;;8.20;4.85;;;6.00;99.90;;;;;;5089130;28;20127;-66
2023/03/09 10:34:20;;;;;;;8.57;5.00;;;6.10;99.90;;;;;;5071074;28;20048;-66
2023/03/09 10:37:17;;;;;;;7.88;4.70;;;6.20;99.90;;;;;;5055980;28;20097;-65
2023/03/09 10:39:44;;;;;;;7.15;4.43;;;6.30;99.90;;;;;;5054382;28;20048;-65
2023/03/09 10:42:26;;;;;;;8.50;4.18;;;6.30;99.90;;;;;;5070521;28;20044;-65
2023/03/09 10:45:02;;;;;;;11.55;5.25;;;6.40;99.90;;;;;;5089128;28;20429;-65
2023/03/09 10:47:47;;;;;;;6.40;3.72;;;6.50;99.90;;;;;;5088797;28;20068;-66
2023/03/09 10:50:15;;;;;;;7.72;4.20;;;6.60;99.90;;;;;;5088927;28;20101;-65
2023/03/09 10:52:52;;;;;;;5.93;4.07;;;6.70;99.90;;;;;;5088831;28;20390;-65
2023/03/09 10:55:31;;;;;;;3.92;2.75;;;6.70;99.90;;;;;;5071241;28;20072;-66
2023/03/09 10:57:59;;;;;;;10.20;3.88;;;6.80;99.90;;;;;;5070603;28;20139;-66
2023/03/09 11:00:26;;;;;;;6.20;3.08;;;7.00;99.90;;;;;;5089034;28;20131;-66
2023/03/09 11:02:58;;;;;;;5.88;3.65;;;7.00;99.90;;;;;;5088652;28;20059;-65
2023/03/09 11:05:27;;;;;;;6.63;3.60;;;7.10;99.90;;;;;;5071831;28;20438;-65
2023/03/09 11:07:56;;;;;;;4.30;2.95;;;7.10;99.90;;;;;;5088566;28;20040;-64
2023/03/09 11:10:33;;;;;;;6.53;3.50;;;7.10;99.90;;;;;;5071091;28;20040;-65
2023/03/09 11:13:01;;;;;;;8.43;3.22;;;7.10;99.90;;;;;;5070536;28;20061;-66
2023/03/09 11:15:31;;;;;;;8.93;3.47;;;7.10;99.90;;;;;;5088640;28;20558;-65
2023/03/09 11:17:58;;;;;;;5.63;2.90;;;7.20;99.90;;;;;;5070497;28;20479;-65
2023/03/09 11:20:35;;;;;;;5.45;3.08;;;7.20;99.90;;;;;;5070990;28;20495;-65
2023/03/09 11:23:20;;;;;;;6.10;3.15;;;7.30;99.90;;;;;;5088197;28;20161;-66
2023/03/09 11:26:04;;;;;;;6.40;3.47;;;7.30;99.90;;;;;;5070531;28;20528;-65
2023/03/09 11:28:39;;;;;;;8.38;4.72;;;7.40;99.90;;;;;;5088405;28;20048;-66
2023/03/09 11:31:32;;;;;;;7.10;4.13;;;7.40;99.90;;;;;;5071632;28;20131;-66
2023/03/09 11:33:59;;;;;;;6.95;4.05;;;7.50;99.90;;;;;;5070178;28;20048;-66
2023/03/09 11:36:31;;;;;;;7.75;4.72;;;7.50;99.90;;;;;;5088299;28;20049;-66
2023/03/09 11:39:00;;;;;;;7.80;5.15;;;7.50;99.90;;;;;;5088621;28;20139;-65
2023/03/09 11:41:32;;;;;;;9.32;5.28;;;7.60;99.90;;;;;;5058333;28;20040;-66
2023/03/09 11:44:28;;;;;;;6.75;4.40;;;7.60;99.90;;;;;;5053809;28;20490;-65
2023/03/09 11:46:58;;;;;;;13.98;5.20;;;7.60;99.90;;;;;;5069407;28;20047;-65
2023/03/09 11:49:25;;;;;;;7.50;4.43;;;7.70;99.90;;;;;;5057713;28;20044;-66
2023/03/09 11:51:52;;;;;;;9.15;4.55;;;7.70;99.90;;;;;;5092357;28;20513;-65
2023/03/09 11:54:33;;;;;;;8.93;4.20;;;7.80;99.90;;;;;;5091831;28;20483;-65
2023/03/09 11:57:02;;;;;;;6.47;4.05;;;7.80;99.90;;;;;;5073897;28;20052;-66
2023/03/09 11:59:29;;;;;;;7.95;4.18;;;7.80;99.90;;;;;;5091708;28;20040;-66
2023/03/09 12:01:56;;;;;;;8.25;4.22;;;7.80;99.90;;;;;;5091963;28;20495;-65
2023/03/09 12:04:23;;;;;;;6.85;4.03;;;7.90;99.90;;;;;;5091595;28;20442;-65
2023/03/09 12:06:57;;;;;;;9.63;3.72;;;7.90;99.90;;;;;;5092174;28;20212;-65
2023/03/09 12:09:38;;;;;;;;;;;7.90;99.90;;;;;;5063361;28;20127;-66
2023/03/09 12:12:41;;;;;;;6.97;3.72;;;8.00;99.90;;;;;;5092211;28;19973;-66
2023/03/09 12:15:32;;;;;;;6.55;3.60;;;8.00;99.90;;;;;;5091552;28;20145;-65
2023/03/09 12:18:01;;;;;;;7.28;2.50;;;8.10;99.90;;;;;;5075917;28;20078;-65
2023/03/09 12:20:40;;;;;;;6.63;3.20;;;8.20;99.90;;;;;;5073259;28;20050;-66
2023/03/09 12:23:35;;;;;;;7.82;4.05;;;8.20;99.90;;;;;;5073845;28;20051;-66
2023/03/09 12:26:17;;;;;;;5.90;3.22;;;8.20;99.90;;;;;;5091549;28;20598;-65
2023/03/09 12:28:57;;;;;;;8.93;3.67;;;8.40;99.90;;;;;;5070355;28;20426;-65
2023/03/09 12:31:34;;;;;;;10.90;5.45;;;8.50;99.90;;;;;;5061945;28;20171;-65
2023/03/09 12:34:22;;;;;;;19.33;4.40;;;8.60;99.90;;;;;;5053892;28;20048;-66
2023/03/09 12:36:49;;;;;;;25.65;7.28;;;8.70;99.90;;;;;;5075747;28;20559;-66
2023/03/09 12:39:24;;;;;;;24.67;5.65;;;8.90;99.90;;;;;;5091309;28;20063;-65
2023/03/09 12:42:01;;;;;;;16.25;4.80;;;9.20;99.90;;;;;;5090701;28;20048;-66
2023/03/09 12:44:43;;;;;;;23.08;6.25;;;9.30;99.90;;;;;;5091114;28;20091;-66
2023/03/09 12:47:35;;;;;;;17.85;5.72;;;9.40;99.90;;;;;;5090293;28;20553;-65
2023/03/09 12:50:04;;;;;;;26.50;5.35;;;9.50;99.90;;;;;;5091066;28;20044;-65
2023/03/09 12:52:49;;;;;;;24.02;4.70;;;9.60;99.90;;;;;;5072238;28;20140;-65